Accueil
METAR-TAF:

METAR-TAF

Aéroports :

Aéroport de Luxembourg-Findel

Luxembourg, Luxembourg

latitude: 49-37N, longitude: 006-13E, altitude: 376 m

Observation

Le bulletin a été fait il y a 13 minutes, à 22:20 UTC
Vent 8 kt de nord-est
Température 17°C
Humidité 29%
Pression 1028 hPa
Visibilité 10 km ou plus
pas de nuages en-dessous de 1500 mètres et pas de cumulonimbus.

METAR: ELLX 192220Z 05008KT CAVOK 17/M01 Q1028 NOSIG

Heure: 00:33 (22:33 UTC)

Prévision

Le bulletin a été fait il y a 5 heures et 33 minutes, à 17:00 UTC
Prévision valable du 19 à 18 UTC au 20 à 24 UTC
Vent 5 kt de est
Visibilité 10 km ou plus
pas de nuages en-dessous de 1500 mètres et pas de cumulonimbus.
Temporairement
du 20 à 10 UTC au 20 à 22 UTC
Vent 11 kt de est/nord-est

TAF: ELLX 191700Z 1918/2024 09005KT CAVOK TEMPO 2010/2022 06011KT

Observations et prévisions météorologiques de plus de 4000 aéroports (messages METAR et TAF).

Les stations disponibles sont représentées par des disques jaunes et rouges sur la carte.

Passer la souris dessus pour voir le nom de la station.

Cliquer dessus pour voir les observations et prévisions météorologiques.

Pour changer de carte: cliquez sur les boutons verts avec une croix noire pour zoomer, sur le bouton vert avec un tiret pour effectuer un zoom arrière, ou sur les flèches vertes pour les cartes adjacentes.


METAR-TAF: